Time;durP1;ratioP1;P1;durP2;ratioP2;P2;SDS_P1;SDS_P2;PMS_P1;PMS_P2;Temp;Humidity;BMP_temperature;BMP_pressure;BME280_temperature;BME280_humidity;BME280_pressure;Samples;Min_cycle;Max_cycle;Signal;HPM_P1;HPM_P2
2021/10/05 00:00:21;;;;;;;5.28;1.65;;;;;;;;;;5035015;28;20035;-83
2021/10/05 00:02:48;;;;;;;4.70;1.60;;;;;;;;;;5020446;28;20032;-80
2021/10/05 00:05:14;;;;;;;4.30;1.75;;;;;;;;;;5020073;28;20455;-81
2021/10/05 00:07:39;;;;;;;4.05;1.80;;;;;;;;;;5022411;28;20031;-81
2021/10/05 00:10:07;;;;;;;4.90;1.60;;;;;;;;;;5049219;28;20033;-81
2021/10/05 00:12:32;;;;;;;4.32;1.60;;;;;;;;;;5049904;28;20025;-81
2021/10/05 00:14:58;;;;;;;3.95;1.60;;;;;;;;;;5053563;28;20043;-81
2021/10/05 00:17:23;;;;;;;7.55;2.10;;;;;;;;;;5032991;28;20033;-80
2021/10/05 00:19:49;;;;;;;4.05;1.70;;;;;;;;;;5046604;28;20025;-84
2021/10/05 00:22:15;;;;;;;3.72;1.52;;;;;;;;;;5037873;28;20126;-81
2021/10/05 00:24:41;;;;;;;3.72;1.88;;;;;;;;;;5053796;28;20033;-80
2021/10/05 00:27:07;;;;;;;4.78;1.70;;;;;;;;;;5042051;28;20061;-80
2021/10/05 00:29:32;;;;;;;4.50;1.90;;;;;;;;;;5035934;28;20742;-79
2021/10/05 00:31:59;;;;;;;5.07;1.83;;;;;;;;;;5038072;28;20033;-83
2021/10/05 00:34:24;;;;;;;6.25;1.70;;;;;;;;;;5053833;28;20487;-79
2021/10/05 00:36:50;;;;;;;4.85;1.67;;;;;;;;;;5011160;28;20043;-83
2021/10/05 00:39:15;;;;;;;4.15;1.77;;;;;;;;;;5038954;28;20043;-83
2021/10/05 00:41:41;;;;;;;5.47;2.33;;;;;;;;;;5052069;28;20029;-80
2021/10/05 00:44:06;;;;;;;4.20;1.73;;;;;;;;;;5035335;28;20126;-83
2021/10/05 00:46:33;;;;;;;5.22;1.92;;;;;;;;;;5018892;28;20043;-80
2021/10/05 00:49:00;;;;;;;5.93;1.70;;;;;;;;;;5040958;28;20060;-80
2021/10/05 00:51:26;;;;;;;4.85;1.98;;;;;;;;;;5051919;28;20361;-80
2021/10/05 00:53:53;;;;;;;5.25;1.88;;;;;;;;;;5019526;28;20186;-81
2021/10/05 00:56:20;;;;;;;4.25;1.73;;;;;;;;;;5050842;28;20044;-80
2021/10/05 00:58:45;;;;;;;4.55;1.90;;;;;;;;;;5050629;28;20033;-80
2021/10/05 01:01:12;;;;;;;4.00;1.70;;;;;;;;;;5018545;28;20032;-79
2021/10/05 01:03:39;;;;;;;5.38;1.75;;;;;;;;;;5036755;28;20170;-80
2021/10/05 01:06:04;;;;;;;4.95;1.90;;;;;;;;;;5034951;28;20033;-80
2021/10/05 01:08:31;;;;;;;4.60;1.77;;;;;;;;;;5051613;28;20442;-80
2021/10/05 01:10:57;;;;;;;6.78;1.70;;;;;;;;;;5034567;28;20044;-80
2021/10/05 01:13:22;;;;;;;4.57;1.67;;;;;;;;;;5020620;28;20032;-83
2021/10/05 01:15:48;;;;;;;4.82;1.70;;;;;;;;;;5016797;28;20049;-80
2021/10/05 01:18:13;;;;;;;6.45;1.60;;;;;;;;;;5031771;28;20087;-80
2021/10/05 01:20:54;;;;;;;2.55;1.58;;;;;;;;;;5035566;28;20033;-80
2021/10/05 01:23:22;;;;;;;3.67;1.40;;;;;;;;;;5050814;28;20021;-83
2021/10/05 01:25:47;;;;;;;6.70;1.77;;;;;;;;;;5051212;28;20025;-80
2021/10/05 01:28:14;;;;;;;4.75;1.50;;;;;;;;;;5051811;28;20033;-80
2021/10/05 01:30:39;;;;;;;3.45;1.50;;;;;;;;;;5033557;28;20033;-80
2021/10/05 01:33:05;;;;;;;3.97;1.50;;;;;;;;;;5052479;28;20032;-80
2021/10/05 01:35:30;;;;;;;4.35;1.40;;;;;;;;;;5031196;28;20059;-80
2021/10/05 01:37:55;;;;;;;5.28;1.55;;;;;;;;;;5034484;28;20107;-83
2021/10/05 01:40:21;;;;;;;5.30;1.55;;;;;;;;;;5017423;28;20558;-79
2021/10/05 01:42:46;;;;;;;3.03;1.55;;;;;;;;;;5052815;28;20116;-80
2021/10/05 01:45:12;;;;;;;6.28;1.77;;;;;;;;;;5035780;28;20358;-80
2021/10/05 01:47:39;;;;;;;3.80;1.40;;;;;;;;;;5018144;28;20502;-80
2021/10/05 01:50:05;;;;;;;4.70;1.70;;;;;;;;;;5017654;28;20033;-83
2021/10/05 01:52:31;;;;;;;4.63;1.98;;;;;;;;;;5018207;28;20106;-83
2021/10/05 01:54:57;;;;;;;5.22;1.60;;;;;;;;;;5002781;28;20044;-83
2021/10/05 01:57:22;;;;;;;6.40;1.63;;;;;;;;;;5035415;28;20503;-79
2021/10/05 01:59:48;;;;;;;3.45;1.50;;;;;;;;;;5019957;28;20039;-84
2021/10/05 02:02:13;;;;;;;5.20;1.60;;;;;;;;;;5033360;28;20056;-80
2021/10/05 02:04:40;;;;;;;4.93;1.55;;;;;;;;;;5051025;28;20099;-79
2021/10/05 02:07:06;;;;;;;4.47;1.52;;;;;;;;;;5015779;28;20086;-80
2021/10/05 02:09:31;;;;;;;3.85;1.73;;;;;;;;;;5038820;28;20379;-83
2021/10/05 02:11:56;;;;;;;3.08;1.60;;;;;;;;;;5019441;28;20039;-83
2021/10/05 02:14:22;;;;;;;5.40;1.38;;;;;;;;;;5023818;28;20040;-80
2021/10/05 02:16:48;;;;;;;3.92;1.40;;;;;;;;;;5035098;28;20562;-83
2021/10/05 02:19:13;;;;;;;5.38;1.38;;;;;;;;;;5039818;28;20037;-80
2021/10/05 02:21:39;;;;;;;3.35;1.42;;;;;;;;;;5040118;28;20079;-83
2021/10/05 02:26:53;;;;;;;8.00;2.47;;;;;;;;;;5028620;28;20471;-79
2021/10/05 02:29:20;;;;;;;2.72;1.20;;;;;;;;;;5054368;28;20033;-80
2021/10/05 02:31:46;;;;;;;3.40;1.52;;;;;;;;;;5057338;28;20033;-83
2021/10/05 02:34:13;;;;;;;7.78;1.48;;;;;;;;;;5022051;28;20036;-83
2021/10/05 02:36:38;;;;;;;3.83;1.30;;;;;;;;;;5034927;28;20047;-80
2021/10/05 02:39:05;;;;;;;4.05;1.42;;;;;;;;;;5037523;28;20088;-80
2021/10/05 02:41:31;;;;;;;3.35;1.50;;;;;;;;;;5042801;28;20640;-80
2021/10/05 02:43:56;;;;;;;3.15;1.58;;;;;;;;;;5052807;28;20044;-80
2021/10/05 02:46:21;;;;;;;2.80;1.50;;;;;;;;;;5023978;28;20477;-80
2021/10/05 02:48:47;;;;;;;5.88;1.77;;;;;;;;;;5022758;28;20813;-80
2021/10/05 02:51:12;;;;;;;4.72;1.27;;;;;;;;;;5053806;28;20036;-80
2021/10/05 02:53:38;;;;;;;4.72;1.40;;;;;;;;;;5019609;28;20064;-83
2021/10/05 02:56:04;;;;;;;5.13;1.48;;;;;;;;;;5039663;28;20028;-83
2021/10/05 02:58:29;;;;;;;3.40;1.35;;;;;;;;;;5035093;28;20045;-80
2021/10/05 03:00:55;;;;;;;2.88;1.58;;;;;;;;;;5050094;28;20064;-80
2021/10/05 03:03:20;;;;;;;4.05;1.80;;;;;;;;;;5036885;28;20036;-80
2021/10/05 03:05:45;;;;;;;4.60;1.67;;;;;;;;;;5040340;28;20033;-80
2021/10/05 03:08:11;;;;;;;2.63;1.27;;;;;;;;;;5038556;28;20037;-80
2021/10/05 03:10:38;;;;;;;3.90;1.40;;;;;;;;;;5041557;28;20041;-80
2021/10/05 03:13:04;;;;;;;4.70;1.40;;;;;;;;;;5036806;28;20037;-83
2021/10/05 03:15:29;;;;;;;5.28;1.23;;;;;;;;;;5046302;28;20426;-80
2021/10/05 03:17:55;;;;;;;2.85;1.30;;;;;;;;;;5040564;28;20083;-80
2021/10/05 03:20:20;;;;;;;5.30;1.75;;;;;;;;;;5051598;28;20041;-80
2021/10/05 03:22:46;;;;;;;3.35;1.45;;;;;;;;;;5054331;28;20052;-80
2021/10/05 03:25:11;;;;;;;4.05;1.52;;;;;;;;;;5051805;28;20492;-80
2021/10/05 03:27:37;;;;;;;2.13;1.20;;;;;;;;;;5039833;28;20078;-79
2021/10/05 03:30:07;;;;;;;3.40;1.33;;;;;;;;;;5032733;28;20037;-80
2021/10/05 03:32:32;;;;;;;3.95;1.33;;;;;;;;;;5034875;28;20590;-83
2021/10/05 03:34:58;;;;;;;2.97;1.55;;;;;;;;;;5018679;28;20120;-80
2021/10/05 03:37:23;;;;;;;4.18;1.55;;;;;;;;;;5040347;28;20065;-83
2021/10/05 03:39:49;;;;;;;2.35;1.42;;;;;;;;;;5037160;28;20021;-80
2021/10/05 03:42:15;;;;;;;2.83;1.50;;;;;;;;;;5037251;28;20025;-83
2021/10/05 03:44:41;;;;;;;3.63;2.10;;;;;;;;;;5017078;28;20082;-80
2021/10/05 03:47:06;;;;;;;4.07;1.65;;;;;;;;;;5039025;28;20036;-84
2021/10/05 03:49:31;;;;;;;3.25;1.85;;;;;;;;;;5024344;28;20036;-83
2021/10/05 03:51:57;;;;;;;3.97;1.60;;;;;;;;;;5037282;28;20090;-80
2021/10/05 03:54:22;;;;;;;4.50;1.80;;;;;;;;;;5033128;28;20033;-83
2021/10/05 03:56:48;;;;;;;5.00;1.60;;;;;;;;;;5037517;28;20041;-80
2021/10/05 03:59:15;;;;;;;4.88;1.58;;;;;;;;;;5036991;28;20516;-79
2021/10/05 04:01:44;;;;;;;5.22;1.55;;;;;;;;;;5019280;28;20050;-80
2021/10/05 04:04:10;;;;;;;4.55;1.50;;;;;;;;;;5022709;28;20397;-80
2021/10/05 04:06:35;;;;;;;2.55;1.60;;;;;;;;;;5042501;28;20033;-79
2021/10/05 04:09:06;;;;;;;3.97;1.58;;;;;;;;;;5040814;28;20033;-83
2021/10/05 04:11:35;;;;;;;5.30;1.70;;;;;;;;;;5033089;28;20406;-80
2021/10/05 04:14:01;;;;;;;4.43;1.90;;;;;;;;;;5039412;28;20037;-81
2021/10/05 04:16:27;;;;;;;4.20;1.90;;;;;;;;;;5057204;28;20159;-83
2021/10/05 04:18:52;;;;;;;3.80;1.90;;;;;;;;;;5057081;28;20115;-80
2021/10/05 04:21:18;;;;;;;4.13;2.20;;;;;;;;;;5057857;28;20057;-79
2021/10/05 04:23:44;;;;;;;3.28;1.77;;;;;;;;;;5041899;28;20036;-83
2021/10/05 04:26:10;;;;;;;3.10;1.98;;;;;;;;;;5022385;28;20033;-80
2021/10/05 04:28:35;;;;;;;4.40;1.60;;;;;;;;;;5018353;28;20407;-83
2021/10/05 04:31:02;;;;;;;4.00;1.85;;;;;;;;;;5032917;28;20558;-80
2021/10/05 04:33:27;;;;;;;3.75;2.00;;;;;;;;;;5044062;28;20040;-83
2021/10/05 04:35:52;;;;;;;3.55;1.77;;;;;;;;;;5027044;28;20039;-80
2021/10/05 04:38:19;;;;;;;3.33;1.60;;;;;;;;;;5054019;28;20036;-83
2021/10/05 04:40:44;;;;;;;3.92;1.80;;;;;;;;;;5019596;28;20029;-80
2021/10/05 04:43:10;;;;;;;4.93;1.70;;;;;;;;;;5058431;28;20056;-80
2021/10/05 04:45:35;;;;;;;3.63;2.00;;;;;;;;;;5047598;28;20032;-83
2021/10/05 04:48:06;;;;;;;3.10;1.80;;;;;;;;;;5022763;28;20037;-79
2021/10/05 04:50:32;;;;;;;3.28;1.90;;;;;;;;;;5053184;28;20025;-79
2021/10/05 04:52:57;;;;;;;4.72;2.03;;;;;;;;;;5042028;28;20406;-80
2021/10/05 04:55:23;;;;;;;3.40;1.92;;;;;;;;;;5013499;28;20441;-80
2021/10/05 04:57:48;;;;;;;5.85;1.88;;;;;;;;;;5016152;28;20039;-83
2021/10/05 05:00:14;;;;;;;4.25;1.83;;;;;;;;;;5017081;28;20064;-80
2021/10/05 05:02:39;;;;;;;2.75;1.80;;;;;;;;;;5019047;28;20135;-80
2021/10/05 05:05:06;;;;;;;3.22;1.80;;;;;;;;;;5016846;28;20039;-80
2021/10/05 05:07:31;;;;;;;4.07;2.00;;;;;;;;;;5015350;28;20140;-83
2021/10/05 05:09:57;;;;;;;5.05;1.88;;;;;;;;;;5015505;28;20057;-80
2021/10/05 05:12:22;;;;;;;3.85;1.80;;;;;;;;;;5036471;28;20033;-80
2021/10/05 05:14:48;;;;;;;3.97;1.98;;;;;;;;;;5017682;28;20033;-83
2021/10/05 05:17:13;;;;;;;5.30;1.80;;;;;;;;;;4986762;28;20029;-83
2021/10/05 05:19:38;;;;;;;3.85;1.98;;;;;;;;;;5006738;28;20041;-80
2021/10/05 05:22:04;;;;;;;4.28;2.00;;;;;;;;;;5015426;28;20040;-83
2021/10/05 05:24:29;;;;;;;4.22;1.88;;;;;;;;;;5031250;28;20046;-80
2021/10/05 05:26:55;;;;;;;5.15;1.90;;;;;;;;;;5016193;28;20029;-80
2021/10/05 05:29:21;;;;;;;5.30;1.90;;;;;;;;;;5015867;28;20520;-80
2021/10/05 05:31:48;;;;;;;5.20;2.05;;;;;;;;;;5036445;28;20433;-81
2021/10/05 05:34:14;;;;;;;2.55;1.60;;;;;;;;;;5016620;28;20029;-83
2021/10/05 05:36:39;;;;;;;4.38;1.65;;;;;;;;;;5013909;28;20803;-83
2021/10/05 05:39:05;;;;;;;3.83;1.88;;;;;;;;;;5014601;28;20477;-83
2021/10/05 05:41:31;;;;;;;4.15;1.85;;;;;;;;;;5032028;28;20033;-80
2021/10/05 05:43:56;;;;;;;3.10;1.70;;;;;;;;;;5037748;28;20029;-79
2021/10/05 05:46:21;;;;;;;5.30;1.83;;;;;;;;;;5019497;28;20052;-83
2021/10/05 05:48:47;;;;;;;3.65;1.92;;;;;;;;;;5022250;28;20040;-80
2021/10/05 05:51:13;;;;;;;4.00;1.90;;;;;;;;;;5025023;28;20033;-79
2021/10/05 05:53:39;;;;;;;4.68;1.85;;;;;;;;;;5048296;28;20053;-80
2021/10/05 05:56:04;;;;;;;4.53;2.08;;;;;;;;;;5035855;28;20041;-83
2021/10/05 05:58:30;;;;;;;3.03;1.60;;;;;;;;;;5035859;28;20063;-83
2021/10/05 06:00:55;;;;;;;3.53;2.00;;;;;;;;;;5033047;28;20033;-80
2021/10/05 06:03:21;;;;;;;5.03;1.73;;;;;;;;;;5039611;28;20033;-80
2021/10/05 06:05:47;;;;;;;3.15;1.60;;;;;;;;;;5053892;28;20037;-82
2021/10/05 06:08:12;;;;;;;3.17;1.95;;;;;;;;;;5032566;28;20045;-80
2021/10/05 06:10:38;;;;;;;3.03;1.88;;;;;;;;;;5040214;28;20030;-79
2021/10/05 06:13:05;;;;;;;2.22;1.60;;;;;;;;;;5021293;28;20042;-79
2021/10/05 06:15:30;;;;;;;4.70;1.75;;;;;;;;;;5038343;28;20036;-80
2021/10/05 06:17:55;;;;;;;8.05;1.90;;;;;;;;;;5048980;28;20108;-80
2021/10/05 06:20:23;;;;;;;2.42;1.55;;;;;;;;;;5049921;28;20037;-79
2021/10/05 06:22:50;;;;;;;3.17;1.70;;;;;;;;;;5033007;28;20033;-80
2021/10/05 06:25:18;;;;;;;2.90;1.70;;;;;;;;;;5012804;28;20038;-80
2021/10/05 06:27:44;;;;;;;3.33;1.70;;;;;;;;;;5036153;28;20055;-80
2021/10/05 06:30:12;;;;;;;4.30;2.10;;;;;;;;;;5037614;28;20120;-83
2021/10/05 06:32:37;;;;;;;3.05;1.80;;;;;;;;;;5031008;28;20484;-80
2021/10/05 06:35:04;;;;;;;3.65;1.85;;;;;;;;;;5031875;28;20088;-80
2021/10/05 06:37:29;;;;;;;4.45;1.80;;;;;;;;;;5033915;28;20099;-81
2021/10/05 06:39:55;;;;;;;5.00;1.88;;;;;;;;;;5019269;28;20037;-83
2021/10/05 06:42:20;;;;;;;5.90;1.83;;;;;;;;;;5036070;28;20466;-79
2021/10/05 06:44:46;;;;;;;3.85;1.88;;;;;;;;;;5014533;28;20040;-84
2021/10/05 06:47:11;;;;;;;3.53;1.80;;;;;;;;;;5003006;28;20448;-83
2021/10/05 06:49:37;;;;;;;2.78;1.65;;;;;;;;;;5027715;28;20030;-81
2021/10/05 06:52:04;;;;;;;3.72;1.95;;;;;;;;;;5036816;28;20393;-80
2021/10/05 06:54:30;;;;;;;3.65;2.00;;;;;;;;;;5020087;28;20096;-80
2021/10/05 06:56:56;;;;;;;5.03;2.00;;;;;;;;;;5001856;28;20034;-80
2021/10/05 06:59:22;;;;;;;3.45;1.83;;;;;;;;;;5038845;28;20127;-84
2021/10/05 07:01:48;;;;;;;8.27;1.98;;;;;;;;;;5040467;28;20176;-80
2021/10/05 07:04:13;;;;;;;3.10;1.67;;;;;;;;;;5019394;28;20064;-80
2021/10/05 07:06:39;;;;;;;3.00;1.77;;;;;;;;;;5034726;28;20045;-79
2021/10/05 07:09:05;;;;;;;3.45;2.00;;;;;;;;;;5019641;28;20060;-80
2021/10/05 07:11:32;;;;;;;4.00;2.10;;;;;;;;;;5014711;28;20034;-81
2021/10/05 07:13:57;;;;;;;3.85;1.77;;;;;;;;;;5018153;28;20040;-81
2021/10/05 07:16:23;;;;;;;5.03;1.70;;;;;;;;;;5024361;28;20826;-83
2021/10/05 07:18:48;;;;;;;4.68;2.00;;;;;;;;;;5020083;28;20030;-80
2021/10/05 07:21:14;;;;;;;6.55;2.78;;;;;;;;;;5019268;28;20036;-79
2021/10/05 07:23:39;;;;;;;3.85;1.80;;;;;;;;;;5037374;28;20041;-83
2021/10/05 07:26:04;;;;;;;5.05;1.92;;;;;;;;;;5042573;28;20025;-83
2021/10/05 07:28:30;;;;;;;3.92;1.83;;;;;;;;;;4985709;28;20025;-79
2021/10/05 07:30:55;;;;;;;2.88;1.88;;;;;;;;;;5025442;28;20040;-80
2021/10/05 07:33:23;;;;;;;4.50;1.95;;;;;;;;;;5021333;28;20121;-80
2021/10/05 07:35:49;;;;;;;6.53;2.00;;;;;;;;;;5017074;28;20040;-79
2021/10/05 07:38:15;;;;;;;5.35;2.00;;;;;;;;;;5013618;28;20478;-80
2021/10/05 07:40:40;;;;;;;4.28;2.10;;;;;;;;;;5038269;28;20021;-83
2021/10/05 07:43:05;;;;;;;3.80;2.00;;;;;;;;;;5018953;28;20029;-83
2021/10/05 07:45:32;;;;;;;5.30;1.83;;;;;;;;;;5013271;28;20053;-79
2021/10/05 07:47:58;;;;;;;4.55;2.00;;;;;;;;;;5019053;28;20052;-80
2021/10/05 07:50:25;;;;;;;4.60;2.10;;;;;;;;;;5036721;28;20038;-82
2021/10/05 07:52:50;;;;;;;4.35;1.92;;;;;;;;;;5014665;28;20048;-79
2021/10/05 07:55:16;;;;;;;5.00;2.30;;;;;;;;;;5040947;28;20077;-79
2021/10/05 07:57:42;;;;;;;3.90;2.00;;;;;;;;;;5060609;28;20033;-80
2021/10/05 08:00:09;;;;;;;6.65;2.50;;;;;;;;;;5055211;28;20040;-83
2021/10/05 08:02:34;;;;;;;5.80;2.83;;;;;;;;;;5046160;28;20116;-80
2021/10/05 08:05:00;;;;;;;3.92;2.00;;;;;;;;;;5035429;28;20498;-80
2021/10/05 08:07:28;;;;;;;4.30;2.35;;;;;;;;;;5056430;28;20527;-79
2021/10/05 08:09:55;;;;;;;5.03;2.50;;;;;;;;;;5037029;28;20480;-83
2021/10/05 08:12:21;;;;;;;5.03;2.38;;;;;;;;;;5032546;28;20026;-79
2021/10/05 08:14:47;;;;;;;5.47;2.50;;;;;;;;;;5057942;28;20372;-83
2021/10/05 08:17:13;;;;;;;6.40;2.35;;;;;;;;;;5039696;28;20087;-79
2021/10/05 08:19:38;;;;;;;4.47;2.20;;;;;;;;;;5057208;28;20086;-80
2021/10/05 08:22:04;;;;;;;6.03;2.40;;;;;;;;;;5035556;28;20033;-80
2021/10/05 08:24:30;;;;;;;5.97;2.20;;;;;;;;;;5055073;28;20063;-79
2021/10/05 08:26:55;;;;;;;3.88;2.40;;;;;;;;;;5011579;28;20124;-79
2021/10/05 08:29:21;;;;;;;6.93;2.70;;;;;;;;;;5059377;28;20074;-80
2021/10/05 08:31:48;;;;;;;7.53;2.20;;;;;;;;;;5041419;28;20024;-79
2021/10/05 08:34:14;;;;;;;6.20;1.95;;;;;;;;;;5055707;28;20108;-79
2021/10/05 08:36:39;;;;;;;4.88;2.05;;;;;;;;;;5037399;28;20086;-79
2021/10/05 08:39:05;;;;;;;5.55;2.10;;;;;;;;;;5057755;28;20033;-79
2021/10/05 08:41:31;;;;;;;5.75;1.92;;;;;;;;;;5036624;28;20037;-81
2021/10/05 08:43:59;;;;;;;4.28;1.80;;;;;;;;;;5045273;28;20451;-79
2021/10/05 08:46:28;;;;;;;3.78;2.00;;;;;;;;;;5041469;28;20033;-80
2021/10/05 08:48:54;;;;;;;6.80;1.98;;;;;;;;;;5055518;28;20032;-84
2021/10/05 08:51:19;;;;;;;4.82;1.98;;;;;;;;;;5024914;28;20120;-80
2021/10/05 08:53:45;;;;;;;5.03;1.85;;;;;;;;;;5039525;28;20114;-83
2021/10/05 08:56:10;;;;;;;5.00;2.00;;;;;;;;;;5019073;28;20032;-81
2021/10/05 08:58:37;;;;;;;4.25;1.80;;;;;;;;;;5035118;28;20501;-81
2021/10/05 09:01:11;;;;;;;4.15;1.70;;;;;;;;;;5016619;28;20037;-81
2021/10/05 09:03:38;;;;;;;5.10;2.10;;;;;;;;;;5017760;28;20030;-80
2021/10/05 09:06:14;;;;;;;3.35;2.00;;;;;;;;;;5035494;28;20477;-80
2021/10/05 09:08:41;;;;;;;5.80;3.03;;;;;;;;;;5020078;28;20061;-81
2021/10/05 09:11:08;;;;;;;4.30;2.08;;;;;;;;;;5016240;28;20176;-80
2021/10/05 09:13:37;;;;;;;3.28;1.90;;;;;;;;;;5034534;28;20484;-80
2021/10/05 09:16:23;;;;;;;5.78;2.20;;;;;;;;;;5038832;28;20025;-84
2021/10/05 09:19:06;;;;;;;5.35;1.92;;;;;;;;;;5037025;28;20037;-84
2021/10/05 09:21:39;;;;;;;5.28;2.13;;;;;;;;;;5032068;28;20484;-81
2021/10/05 09:24:04;;;;;;;;;;;;;;;;;;5018189;28;20493;-81
2021/10/05 09:26:54;;;;;;;5.10;1.75;;;;;;;;;;5034106;28;19913;-81
2021/10/05 09:29:37;;;;;;;4.88;1.90;;;;;;;;;;5037903;28;20072;-80
2021/10/05 09:32:11;;;;;;;6.32;1.90;;;;;;;;;;5034316;28;20508;-80
2021/10/05 09:34:38;;;;;;;4.28;1.90;;;;;;;;;;5035627;28;20029;-84
2021/10/05 09:37:04;;;;;;;4.68;1.90;;;;;;;;;;5017987;28;20044;-80
2021/10/05 09:39:45;;;;;;;3.25;1.75;;;;;;;;;;5036227;28;20096;-84
2021/10/05 09:42:17;;;;;;;5.03;2.00;;;;;;;;;;5018214;28;20048;-80
2021/10/05 09:44:42;;;;;;;4.23;1.87;;;;;;;;;;5015900;28;20026;-80
2021/10/05 09:47:08;;;;;;;4.35;1.95;;;;;;;;;;4986524;28;20374;-81
2021/10/05 09:49:41;;;;;;;4.38;1.63;;;;;;;;;;4998430;28;20029;-81
2021/10/05 09:52:08;;;;;;;7.25;2.10;;;;;;;;;;5003767;28;20032;-80
2021/10/05 09:54:34;;;;;;;10.02;2.40;;;;;;;;;;5008464;28;20091;-80
2021/10/05 09:57:00;;;;;;;3.65;1.67;;;;;;;;;;5016598;28;20041;-80
2021/10/05 09:59:25;;;;;;;3.80;1.70;;;;;;;;;;5033842;28;20044;-83
2021/10/05 10:01:52;;;;;;;5.97;1.77;;;;;;;;;;5014721;28;20528;-81
2021/10/05 10:04:22;;;;;;;7.72;2.25;;;;;;;;;;5012383;28;20034;-84
2021/10/05 10:06:49;;;;;;;3.65;1.90;;;;;;;;;;5020573;28;20032;-80
2021/10/05 10:09:14;;;;;;;4.93;1.88;;;;;;;;;;5001306;28;20030;-80
2021/10/05 10:11:39;;;;;;;5.28;1.60;;;;;;;;;;5030203;28;20029;-80
2021/10/05 10:14:05;;;;;;;4.85;2.00;;;;;;;;;;5017611;28;20029;-80
2021/10/05 10:16:34;;;;;;;4.18;1.85;;;;;;;;;;5014341;28;20052;-84
2021/10/05 10:19:02;;;;;;;4.63;1.67;;;;;;;;;;5013884;28;20041;-80
2021/10/05 10:21:33;;;;;;;4.20;1.65;;;;;;;;;;5014180;28;20040;-80
2021/10/05 10:24:13;;;;;;;4.03;1.60;;;;;;;;;;5027353;28;20107;-79
2021/10/05 10:26:46;;;;;;;5.90;1.77;;;;;;;;;;5028770;28;20040;-81
2021/10/05 10:29:13;;;;;;;;;;;;;;;;;;5016084;28;20421;-80
2021/10/05 10:31:40;;;;;;;5.07;1.70;;;;;;;;;;5034102;28;19913;-81
2021/10/05 10:34:17;;;;;;;3.45;1.75;;;;;;;;;;5020719;28;20033;-80
2021/10/05 10:36:43;;;;;;;6.18;1.50;;;;;;;;;;5034723;28;20036;-83
2021/10/05 10:39:12;;;;;;;3.13;1.20;;;;;;;;;;5006340;28;20137;-84
2021/10/05 10:41:43;;;;;;;4.15;1.40;;;;;;;;;;5021085;28;20411;-80
2021/10/05 10:44:12;;;;;;;3.05;1.48;;;;;;;;;;5011459;28;20030;-84
2021/10/05 10:46:39;;;;;;;4.38;1.40;;;;;;;;;;5041497;28;20484;-80
2021/10/05 10:49:14;;;;;;;3.13;1.15;;;;;;;;;;5021223;28;20029;-80
2021/10/05 10:51:42;;;;;;;2.30;0.98;;;;;;;;;;5012025;28;20056;-84
2021/10/05 10:54:20;;;;;;;6.75;1.10;;;;;;;;;;5055793;28;20048;-81
2021/10/05 10:56:56;;;;;;;4.78;1.25;;;;;;;;;;5058367;28;20048;-83
2021/10/05 10:59:26;;;;;;;5.35;0.98;;;;;;;;;;5031798;28;20021;-80
2021/10/05 11:01:52;;;;;;;2.55;1.00;;;;;;;;;;5058543;28;20379;-80
2021/10/05 11:04:19;;;;;;;3.13;1.00;;;;;;;;;;5037409;28;20033;-81
2021/10/05 11:06:47;;;;;;;5.82;1.10;;;;;;;;;;5041464;28;20032;-81
2021/10/05 11:09:13;;;;;;;3.83;0.70;;;;;;;;;;5039966;28;20036;-81
2021/10/05 11:11:49;;;;;;;4.97;0.90;;;;;;;;;;5049358;28;20029;-84
2021/10/05 11:14:35;;;;;;;2.40;0.90;;;;;;;;;;5042222;28;20361;-81
2021/10/05 11:17:04;;;;;;;5.18;1.17;;;;;;;;;;5038670;28;20444;-80
2021/10/05 11:19:35;;;;;;;2.72;1.10;;;;;;;;;;5039497;28;20036;-80
2021/10/05 11:22:03;;;;;;;3.78;0.80;;;;;;;;;;5053867;28;20030;-80
2021/10/05 11:24:47;;;;;;;3.40;0.90;;;;;;;;;;5026156;28;20148;-80
2021/10/05 11:27:15;;;;;;;3.78;1.10;;;;;;;;;;5038235;28;20039;-80
2021/10/05 11:29:40;;;;;;;3.40;1.20;;;;;;;;;;5055379;28;20048;-79
2021/10/05 11:32:08;;;;;;;3.50;1.00;;;;;;;;;;5035560;28;20024;-83
2021/10/05 11:34:36;;;;;;;4.15;1.20;;;;;;;;;;5042260;28;20037;-80
2021/10/05 11:37:06;;;;;;;5.28;0.90;;;;;;;;;;5054013;28;20025;-80
2021/10/05 11:39:34;;;;;;;2.95;1.05;;;;;;;;;;5052770;28;20037;-80
2021/10/05 11:42:11;;;;;;;4.43;0.80;;;;;;;;;;5023510;28;20115;-80
2021/10/05 11:44:47;;;;;;;2.53;0.77;;;;;;;;;;5040011;28;20147;-83
2021/10/05 11:47:16;;;;;;;2.63;0.82;;;;;;;;;;5056103;28;20353;-81
2021/10/05 11:50:05;;;;;;;5.80;0.90;;;;;;;;;;5029223;28;20030;-80
2021/10/05 11:52:35;;;;;;;2.88;0.73;;;;;;;;;;5057651;28;20043;-79
2021/10/05 11:55:01;;;;;;;4.00;0.85;;;;;;;;;;5055542;28;20040;-80
2021/10/05 11:57:33;;;;;;;3.33;0.68;;;;;;;;;;5032145;28;20492;-80
2021/10/05 12:00:03;;;;;;;3.72;0.88;;;;;;;;;;5047727;28;20535;-80
2021/10/05 12:02:29;;;;;;;2.53;0.70;;;;;;;;;;5042420;28;20025;-83
2021/10/05 12:04:56;;;;;;;4.85;1.10;;;;;;;;;;5006101;28;20037;-84
2021/10/05 12:07:26;;;;;;;2.25;0.65;;;;;;;;;;5038230;28;20067;-83
2021/10/05 12:10:02;;;;;;;4.53;0.80;;;;;;;;;;5034205;28;20061;-80
2021/10/05 12:12:33;;;;;;;4.68;0.70;;;;;;;;;;5050605;28;20092;-83
2021/10/05 12:15:01;;;;;;;1.40;0.55;;;;;;;;;;5051418;28;20049;-79
2021/10/05 12:17:27;;;;;;;1.73;0.68;;;;;;;;;;5037963;28;20045;-80
2021/10/05 12:19:53;;;;;;;5.35;0.60;;;;;;;;;;5034242;28;20039;-84
2021/10/05 12:22:39;;;;;;;3.42;0.70;;;;;;;;;;5055823;28;20021;-80
2021/10/05 12:25:05;;;;;;;1.48;0.50;;;;;;;;;;5050578;28;20039;-83
2021/10/05 12:27:32;;;;;;;2.40;0.70;;;;;;;;;;5058209;28;20063;-79
2021/10/05 12:29:58;;;;;;;2.40;0.73;;;;;;;;;;5045185;28;20036;-79
2021/10/05 12:32:35;;;;;;;4.55;1.00;;;;;;;;;;5038150;28;20021;-81
2021/10/05 12:35:01;;;;;;;4.65;0.90;;;;;;;;;;5049327;28;20060;-82
2021/10/05 12:37:32;;;;;;;4.55;1.42;;;;;;;;;;5037965;28;20085;-80
2021/10/05 12:40:04;;;;;;;2.55;0.80;;;;;;;;;;5061143;28;20052;-80
2021/10/05 12:42:59;;;;;;;3.07;0.70;;;;;;;;;;5056720;28;20047;-79
2021/10/05 12:45:25;;;;;;;2.13;0.70;;;;;;;;;;5009759;28;20077;-79
2021/10/05 12:48:02;;;;;;;2.10;0.70;;;;;;;;;;5017316;28;20037;-79
2021/10/05 12:50:31;;;;;;;2.22;0.65;;;;;;;;;;5050477;28;20029;-83
2021/10/05 12:53:00;;;;;;;4.18;0.70;;;;;;;;;;5055364;28;20049;-79
2021/10/05 12:55:28;;;;;;;4.07;0.70;;;;;;;;;;5047406;28;20033;-80
2021/10/05 12:57:58;;;;;;;3.28;0.73;;;;;;;;;;5040748;28;20029;-82
2021/10/05 13:00:26;;;;;;;3.33;1.23;;;;;;;;;;5042981;28;20052;-79
2021/10/05 13:02:51;;;;;;;2.00;0.80;;;;;;;;;;5054257;28;20487;-83
2021/10/05 13:05:19;;;;;;;4.07;1.10;;;;;;;;;;5052460;28;20024;-82
2021/10/05 13:07:44;;;;;;;3.55;1.40;;;;;;;;;;5042116;28;20531;-79
2021/10/05 13:10:12;;;;;;;3.25;0.90;;;;;;;;;;5027646;28;20021;-81
2021/10/05 13:12:38;;;;;;;5.25;1.10;;;;;;;;;;5054659;28;20098;-79
2021/10/05 13:15:05;;;;;;;1.77;0.82;;;;;;;;;;5019476;28;20512;-81
2021/10/05 13:17:30;;;;;;;2.95;1.00;;;;;;;;;;5052919;28;20162;-83
2021/10/05 13:19:56;;;;;;;4.38;1.00;;;;;;;;;;5037436;28;20496;-80
2021/10/05 13:22:21;;;;;;;3.50;0.85;;;;;;;;;;5059553;28;20052;-79
2021/10/05 13:24:47;;;;;;;4.68;1.00;;;;;;;;;;5040949;28;20035;-79
2021/10/05 13:27:12;;;;;;;3.08;0.98;;;;;;;;;;5038569;28;20440;-81
2021/10/05 13:29:38;;;;;;;1.45;0.90;;;;;;;;;;5035091;28;20055;-80
2021/10/05 13:32:08;;;;;;;4.13;1.17;;;;;;;;;;5024177;28;20025;-80
2021/10/05 13:34:34;;;;;;;4.53;1.10;;;;;;;;;;5044554;28;20433;-80
2021/10/05 13:37:00;;;;;;;3.33;1.02;;;;;;;;;;5039991;28;20052;-80
2021/10/05 13:39:28;;;;;;;4.45;1.20;;;;;;;;;;5048485;28;20029;-84
2021/10/05 13:41:54;;;;;;;3.85;1.00;;;;;;;;;;5010105;28;20033;-80
2021/10/05 13:44:22;;;;;;;3.40;0.90;;;;;;;;;;5034872;28;20029;-82
2021/10/05 13:46:50;;;;;;;2.58;1.05;;;;;;;;;;5041905;28;20040;-81
2021/10/05 13:49:16;;;;;;;2.17;1.00;;;;;;;;;;5035985;28;20131;-83
2021/10/05 13:51:41;;;;;;;5.15;1.20;;;;;;;;;;5026836;28;20077;-82
2021/10/05 13:54:07;;;;;;;5.07;1.20;;;;;;;;;;5011518;28;20467;-82
2021/10/05 13:56:32;;;;;;;3.10;1.30;;;;;;;;;;5014342;28;20059;-81
2021/10/05 13:59:05;;;;;;;3.80;1.20;;;;;;;;;;5016170;28;20061;-83
2021/10/05 14:01:34;;;;;;;4.70;1.30;;;;;;;;;;5035240;28;20033;-81
2021/10/05 14:04:04;;;;;;;2.08;1.10;;;;;;;;;;5015922;28;20439;-85
2021/10/05 14:06:36;;;;;;;2.22;1.00;;;;;;;;;;5008697;28;20494;-84
2021/10/05 14:09:06;;;;;;;5.00;1.23;;;;;;;;;;5019360;28;20030;-84
2021/10/05 14:11:35;;;;;;;5.53;1.40;;;;;;;;;;5018757;28;20026;-81
2021/10/05 14:14:07;;;;;;;2.75;1.20;;;;;;;;;;5021963;28;20041;-84
2021/10/05 14:16:36;;;;;;;2.55;1.00;;;;;;;;;;5007255;28;20076;-81
2021/10/05 14:19:08;;;;;;;3.78;1.25;;;;;;;;;;5004510;28;20032;-86
2021/10/05 14:21:37;;;;;;;3.40;1.30;;;;;;;;;;5024778;28;20049;-86
2021/10/05 14:24:08;;;;;;;3.80;1.23;;;;;;;;;;5019787;28;20143;-84
2021/10/05 14:26:37;;;;;;;3.85;1.30;;;;;;;;;;5024131;28;20040;-85
2021/10/05 14:29:08;;;;;;;3.33;1.45;;;;;;;;;;5022044;28;20057;-85
2021/10/05 14:31:37;;;;;;;3.83;1.27;;;;;;;;;;5000554;28;20095;-85
2021/10/05 14:34:09;;;;;;;3.00;1.20;;;;;;;;;;5037623;28;20549;-85
2021/10/05 14:36:38;;;;;;;3.90;1.30;;;;;;;;;;5010387;28;20030;-81
2021/10/05 14:39:11;;;;;;;5.40;1.30;;;;;;;;;;5003213;28;20108;-80
2021/10/05 14:41:42;;;;;;;2.88;1.10;;;;;;;;;;4998918;28;20136;-84
2021/10/05 14:44:10;;;;;;;2.30;1.02;;;;;;;;;;5022888;28;20041;-85
2021/10/05 14:46:42;;;;;;;3.83;1.27;;;;;;;;;;5029757;28;20113;-81